sensor_id;sensor_type;location;lat;lon;timestamp;temperature;humidity
12604;DHT22;6367;52.508;13.284;2023-04-25T00:02:03;12.80;90.90
12604;DHT22;6367;52.508;13.284;2023-04-25T00:04:29;13.50;91.30
12604;DHT22;6367;52.508;13.284;2023-04-25T00:06:55;13.50;91.30
12604;DHT22;6367;52.508;13.284;2023-04-25T00:09:21;13.40;91.10
12604;DHT22;6367;52.508;13.284;2023-04-25T00:11:47;13.40;91.10
12604;DHT22;6367;52.508;13.284;2023-04-25T00:14:13;13.50;91.00
12604;DHT22;6367;52.508;13.284;2023-04-25T00:16:39;13.40;91.00
12604;DHT22;6367;52.508;13.284;2023-04-25T00:19:06;13.50;90.90
12604;DHT22;6367;52.508;13.284;2023-04-25T00:21:33;13.50;90.80
12604;DHT22;6367;52.508;13.284;2023-04-25T00:23:59;13.50;90.70
12604;DHT22;6367;52.508;13.284;2023-04-25T00:26:25;13.50;90.50
12604;DHT22;6367;52.508;13.284;2023-04-25T00:28:51;13.50;90.60
12604;DHT22;6367;52.508;13.284;2023-04-25T00:31:16;13.50;90.60
12604;DHT22;6367;52.508;13.284;2023-04-25T00:33:42;13.50;90.60
12604;DHT22;6367;52.508;13.284;2023-04-25T00:36:08;13.50;90.50
12604;DHT22;6367;52.508;13.284;2023-04-25T00:38:34;13.50;90.50
12604;DHT22;6367;52.508;13.284;2023-04-25T00:41:00;14.20;90.90
12604;DHT22;6367;52.508;13.284;2023-04-25T00:43:26;13.50;90.60
12604;DHT22;6367;52.508;13.284;2023-04-25T00:45:53;13.50;90.60
12604;DHT22;6367;52.508;13.284;2023-04-25T00:48:20;13.40;90.60
12604;DHT22;6367;52.508;13.284;2023-04-25T00:50:57;13.50;90.70
12604;DHT22;6367;52.508;13.284;2023-04-25T00:53:24;13.40;90.70
12604;DHT22;6367;52.508;13.284;2023-04-25T00:55:50;13.50;90.60
12604;DHT22;6367;52.508;13.284;2023-04-25T00:58:20;13.50;90.50
12604;DHT22;6367;52.508;13.284;2023-04-25T01:00:48;13.40;90.60
12604;DHT22;6367;52.508;13.284;2023-04-25T01:03:15;14.20;90.90
12604;DHT22;6367;52.508;13.284;2023-04-25T01:05:42;13.50;90.70
12604;DHT22;6367;52.508;13.284;2023-04-25T01:08:08;13.80;90.80
12604;DHT22;6367;52.508;13.284;2023-04-25T01:10:34;14.10;91.00
12604;DHT22;6367;52.508;13.284;2023-04-25T01:12:59;13.40;90.70
12604;DHT22;6367;52.508;13.284;2023-04-25T01:15:25;13.40;90.80
12604;DHT22;6367;52.508;13.284;2023-04-25T01:17:51;13.50;90.70
12604;DHT22;6367;52.508;13.284;2023-04-25T01:20:16;13.50;90.70
12604;DHT22;6367;52.508;13.284;2023-04-25T01:22:43;14.00;90.80
12604;DHT22;6367;52.508;13.284;2023-04-25T01:25:09;13.40;90.70
12604;DHT22;6367;52.508;13.284;2023-04-25T01:27:36;13.40;90.80
12604;DHT22;6367;52.508;13.284;2023-04-25T01:30:03;13.40;90.70
12604;DHT22;6367;52.508;13.284;2023-04-25T01:32:30;13.40;90.70
12604;DHT22;6367;52.508;13.284;2023-04-25T01:35:04;13.40;90.70
12604;DHT22;6367;52.508;13.284;2023-04-25T01:37:38;13.40;90.80
12604;DHT22;6367;52.508;13.284;2023-04-25T01:40:04;13.40;90.80
12604;DHT22;6367;52.508;13.284;2023-04-25T01:42:33;13.40;90.70
12604;DHT22;6367;52.508;13.284;2023-04-25T01:44:59;13.90;91.00
12604;DHT22;6367;52.508;13.284;2023-04-25T01:47:25;13.40;90.80
12604;DHT22;6367;52.508;13.284;2023-04-25T01:49:51;13.30;90.80
12604;DHT22;6367;52.508;13.284;2023-04-25T01:52:16;13.40;90.70
12604;DHT22;6367;52.508;13.284;2023-04-25T01:54:42;13.30;90.80
12604;DHT22;6367;52.508;13.284;2023-04-25T01:57:13;13.30;90.90
12604;DHT22;6367;52.508;13.284;2023-04-25T01:59:39;13.30;90.90
12604;DHT22;6367;52.508;13.284;2023-04-25T02:02:05;13.30;90.90
12604;DHT22;6367;52.508;13.284;2023-04-25T02:04:31;13.40;90.80
12604;DHT22;6367;52.508;13.284;2023-04-25T02:06:56;13.50;90.70
12604;DHT22;6367;52.508;13.284;2023-04-25T02:09:22;13.40;90.60
12604;DHT22;6367;52.508;13.284;2023-04-25T02:11:48;13.30;90.70
12604;DHT22;6367;52.508;13.284;2023-04-25T02:14:13;13.30;90.80
12604;DHT22;6367;52.508;13.284;2023-04-25T02:16:39;13.30;90.90
12604;DHT22;6367;52.508;13.284;2023-04-25T02:19:05;13.70;91.10
12604;DHT22;6367;52.508;13.284;2023-04-25T02:21:31;13.30;90.90
12604;DHT22;6367;52.508;13.284;2023-04-25T02:23:57;13.30;91.20
12604;DHT22;6367;52.508;13.284;2023-04-25T02:26:23;13.60;91.10
12604;DHT22;6367;52.508;13.284;2023-04-25T02:28:50;13.30;91.00
12604;DHT22;6367;52.508;13.284;2023-04-25T02:31:16;13.30;90.90
12604;DHT22;6367;52.508;13.284;2023-04-25T02:33:42;13.30;90.90
12604;DHT22;6367;52.508;13.284;2023-04-25T02:36:08;13.30;90.90
12604;DHT22;6367;52.508;13.284;2023-04-25T02:38:34;13.30;90.90
12604;DHT22;6367;52.508;13.284;2023-04-25T02:40:59;13.30;90.90
12604;DHT22;6367;52.508;13.284;2023-04-25T02:43:25;13.20;91.00
12604;DHT22;6367;52.508;13.284;2023-04-25T02:45:51;13.30;91.00
12604;DHT22;6367;52.508;13.284;2023-04-25T02:48:16;13.20;91.00
12604;DHT22;6367;52.508;13.284;2023-04-25T02:50:42;13.30;91.00
12604;DHT22;6367;52.508;13.284;2023-04-25T02:53:08;13.30;91.00
12604;DHT22;6367;52.508;13.284;2023-04-25T02:55:33;13.30;90.90
12604;DHT22;6367;52.508;13.284;2023-04-25T02:57:59;13.70;91.00
12604;DHT22;6367;52.508;13.284;2023-04-25T03:00:25;13.30;90.90
12604;DHT22;6367;52.508;13.284;2023-04-25T03:02:50;13.20;91.00
12604;DHT22;6367;52.508;13.284;2023-04-25T03:05:16;13.20;91.10
12604;DHT22;6367;52.508;13.284;2023-04-25T03:07:42;13.20;91.10
12604;DHT22;6367;52.508;13.284;2023-04-25T03:10:09;13.20;91.10
12604;DHT22;6367;52.508;13.284;2023-04-25T03:12:35;13.30;91.00
12604;DHT22;6367;52.508;13.284;2023-04-25T03:15:01;13.10;91.00
12604;DHT22;6367;52.508;13.284;2023-04-25T03:17:27;13.10;91.20
12604;DHT22;6367;52.508;13.284;2023-04-25T03:19:52;13.20;91.10
12604;DHT22;6367;52.508;13.284;2023-04-25T03:22:18;13.10;91.10
12604;DHT22;6367;52.508;13.284;2023-04-25T03:24:44;13.20;91.20
12604;DHT22;6367;52.508;13.284;2023-04-25T03:27:10;13.10;91.20
12604;DHT22;6367;52.508;13.284;2023-04-25T03:29:35;13.10;91.20
12604;DHT22;6367;52.508;13.284;2023-04-25T03:32:01;13.00;91.20
12604;DHT22;6367;52.508;13.284;2023-04-25T03:34:26;13.00;91.20
12604;DHT22;6367;52.508;13.284;2023-04-25T03:36:52;13.10;91.30
12604;DHT22;6367;52.508;13.284;2023-04-25T03:39:18;13.00;91.20
12604;DHT22;6367;52.508;13.284;2023-04-25T03:41:43;13.00;91.20
12604;DHT22;6367;52.508;13.284;2023-04-25T03:44:09;13.10;91.30
12604;DHT22;6367;52.508;13.284;2023-04-25T03:46:34;13.00;91.30
12604;DHT22;6367;52.508;13.284;2023-04-25T03:49:00;13.00;91.30
12604;DHT22;6367;52.508;13.284;2023-04-25T03:51:26;13.00;91.40
12604;DHT22;6367;52.508;13.284;2023-04-25T03:53:52;13.10;91.30
12604;DHT22;6367;52.508;13.284;2023-04-25T03:56:18;13.00;91.30
12604;DHT22;6367;52.508;13.284;2023-04-25T03:58:44;13.10;91.40
12604;DHT22;6367;52.508;13.284;2023-04-25T04:01:09;13.00;91.40
12604;DHT22;6367;52.508;13.284;2023-04-25T04:03:35;13.00;91.40
12604;DHT22;6367;52.508;13.284;2023-04-25T04:06:02;13.20;91.40
12604;DHT22;6367;52.508;13.284;2023-04-25T04:08:29;13.00;91.50
12604;DHT22;6367;52.508;13.284;2023-04-25T04:10:57;13.10;91.40
12604;DHT22;6367;52.508;13.284;2023-04-25T04:13:25;13.10;91.40
12604;DHT22;6367;52.508;13.284;2023-04-25T04:15:51;13.10;91.40
12604;DHT22;6367;52.508;13.284;2023-04-25T04:18:16;13.00;91.50
12604;DHT22;6367;52.508;13.284;2023-04-25T04:20:42;13.00;91.50
12604;DHT22;6367;52.508;13.284;2023-04-25T04:23:07;13.10;91.50
12604;DHT22;6367;52.508;13.284;2023-04-25T04:25:33;13.00;91.40
12604;DHT22;6367;52.508;13.284;2023-04-25T04:27:59;13.00;91.80
12604;DHT22;6367;52.508;13.284;2023-04-25T04:30:26;12.90;91.50
12604;DHT22;6367;52.508;13.284;2023-04-25T04:32:55;13.00;91.60
12604;DHT22;6367;52.508;13.284;2023-04-25T04:35:22;13.00;91.60
12604;DHT22;6367;52.508;13.284;2023-04-25T04:37:48;13.00;91.50
12604;DHT22;6367;52.508;13.284;2023-04-25T04:40:14;13.00;91.60
12604;DHT22;6367;52.508;13.284;2023-04-25T04:42:43;12.90;91.60
12604;DHT22;6367;52.508;13.284;2023-04-25T04:45:10;12.90;91.60
12604;DHT22;6367;52.508;13.284;2023-04-25T04:47:36;13.00;91.70
12604;DHT22;6367;52.508;13.284;2023-04-25T04:50:09;13.00;91.70
12604;DHT22;6367;52.508;13.284;2023-04-25T04:52:36;13.10;91.70
12604;DHT22;6367;52.508;13.284;2023-04-25T04:55:03;13.10;91.70
12604;DHT22;6367;52.508;13.284;2023-04-25T04:57:29;13.10;91.60
12604;DHT22;6367;52.508;13.284;2023-04-25T04:59:55;13.10;91.60
12604;DHT22;6367;52.508;13.284;2023-04-25T05:02:20;13.10;91.70
12604;DHT22;6367;52.508;13.284;2023-04-25T05:04:46;13.00;92.10
12604;DHT22;6367;52.508;13.284;2023-04-25T05:07:12;13.00;91.80
12604;DHT22;6367;52.508;13.284;2023-04-25T05:09:38;13.00;91.80
12604;DHT22;6367;52.508;13.284;2023-04-25T05:12:04;13.00;91.70
12604;DHT22;6367;52.508;13.284;2023-04-25T05:14:30;13.10;92.20
12604;DHT22;6367;52.508;13.284;2023-04-25T05:16:56;13.10;91.90
12604;DHT22;6367;52.508;13.284;2023-04-25T05:19:22;13.20;91.70
12604;DHT22;6367;52.508;13.284;2023-04-25T05:21:48;13.20;91.70
12604;DHT22;6367;52.508;13.284;2023-04-25T05:24:14;13.00;91.70
12604;DHT22;6367;52.508;13.284;2023-04-25T05:26:40;13.00;92.00
12604;DHT22;6367;52.508;13.284;2023-04-25T05:29:06;13.10;92.00
12604;DHT22;6367;52.508;13.284;2023-04-25T05:31:32;13.10;92.00
12604;DHT22;6367;52.508;13.284;2023-04-25T05:33:58;13.10;92.10
12604;DHT22;6367;52.508;13.284;2023-04-25T05:36:24;13.10;92.00
12604;DHT22;6367;52.508;13.284;2023-04-25T05:38:49;13.10;92.10
12604;DHT22;6367;52.508;13.284;2023-04-25T05:41:15;13.10;92.00
12604;DHT22;6367;52.508;13.284;2023-04-25T05:43:41;13.10;92.10
12604;DHT22;6367;52.508;13.284;2023-04-25T05:46:12;13.10;92.20
12604;DHT22;6367;52.508;13.284;2023-04-25T05:48:38;13.10;92.20
12604;DHT22;6367;52.508;13.284;2023-04-25T05:51:05;13.20;92.20
12604;DHT22;6367;52.508;13.284;2023-04-25T05:53:30;13.30;92.20
12604;DHT22;6367;52.508;13.284;2023-04-25T05:55:56;13.30;92.30
12604;DHT22;6367;52.508;13.284;2023-04-25T05:58:22;13.30;92.30
12604;DHT22;6367;52.508;13.284;2023-04-25T06:00:47;13.30;92.30
12604;DHT22;6367;52.508;13.284;2023-04-25T06:03:13;13.30;92.40
12604;DHT22;6367;52.508;13.284;2023-04-25T06:05:41;13.30;92.40
12604;DHT22;6367;52.508;13.284;2023-04-25T06:08:07;13.90;92.80
12604;DHT22;6367;52.508;13.284;2023-04-25T06:10:33;13.20;92.50
12604;DHT22;6367;52.508;13.284;2023-04-25T06:12:59;13.30;92.60
12604;DHT22;6367;52.508;13.284;2023-04-25T06:15:24;13.30;92.70
12604;DHT22;6367;52.508;13.284;2023-04-25T06:17:50;13.20;92.60
12604;DHT22;6367;52.508;13.284;2023-04-25T06:20:16;13.20;92.70
12604;DHT22;6367;52.508;13.284;2023-04-25T06:22:42;13.30;92.60
12604;DHT22;6367;52.508;13.284;2023-04-25T06:25:07;13.30;92.70
12604;DHT22;6367;52.508;13.284;2023-04-25T06:27:34;13.30;93.10
12604;DHT22;6367;52.508;13.284;2023-04-25T06:29:59;13.30;92.90
12604;DHT22;6367;52.508;13.284;2023-04-25T06:32:25;13.20;93.00
12604;DHT22;6367;52.508;13.284;2023-04-25T06:34:53;13.30;93.10
12604;DHT22;6367;52.508;13.284;2023-04-25T06:37:18;13.30;93.10
12604;DHT22;6367;52.508;13.284;2023-04-25T06:39:44;13.40;93.10
12604;DHT22;6367;52.508;13.284;2023-04-25T06:42:09;13.30;93.00
12604;DHT22;6367;52.508;13.284;2023-04-25T06:44:35;13.70;93.30
12604;DHT22;6367;52.508;13.284;2023-04-25T06:47:01;13.30;93.40
12604;DHT22;6367;52.508;13.284;2023-04-25T06:49:26;13.20;93.10
12604;DHT22;6367;52.508;13.284;2023-04-25T06:51:52;13.30;93.20
12604;DHT22;6367;52.508;13.284;2023-04-25T06:54:18;13.30;93.00
12604;DHT22;6367;52.508;13.284;2023-04-25T06:56:43;13.20;93.10
12604;DHT22;6367;52.508;13.284;2023-04-25T06:59:09;13.20;93.20
12604;DHT22;6367;52.508;13.284;2023-04-25T07:01:35;13.20;93.20
12604;DHT22;6367;52.508;13.284;2023-04-25T07:04:00;13.20;93.20
12604;DHT22;6367;52.508;13.284;2023-04-25T07:06:26;13.30;93.20
12604;DHT22;6367;52.508;13.284;2023-04-25T07:08:53;13.20;93.20
12604;DHT22;6367;52.508;13.284;2023-04-25T07:11:19;13.20;93.40
12604;DHT22;6367;52.508;13.284;2023-04-25T07:13:45;13.10;93.50
12604;DHT22;6367;52.508;13.284;2023-04-25T07:16:10;13.10;93.60
12604;DHT22;6367;52.508;13.284;2023-04-25T07:18:36;13.00;93.70
12604;DHT22;6367;52.508;13.284;2023-04-25T07:21:02;13.10;93.90
12604;DHT22;6367;52.508;13.284;2023-04-25T07:23:27;13.10;93.80
12604;DHT22;6367;52.508;13.284;2023-04-25T07:25:53;12.90;93.90
12604;DHT22;6367;52.508;13.284;2023-04-25T07:28:19;12.90;93.90
12604;DHT22;6367;52.508;13.284;2023-04-25T07:30:44;12.90;93.90
12604;DHT22;6367;52.508;13.284;2023-04-25T07:33:10;13.00;93.70
12604;DHT22;6367;52.508;13.284;2023-04-25T07:35:36;13.00;93.50
12604;DHT22;6367;52.508;13.284;2023-04-25T07:38:02;13.00;93.60
12604;DHT22;6367;52.508;13.284;2023-04-25T07:40:28;12.90;93.20
12604;DHT22;6367;52.508;13.284;2023-04-25T07:42:53;12.80;93.30
12604;DHT22;6367;52.508;13.284;2023-04-25T07:45:19;12.90;93.20
12604;DHT22;6367;52.508;13.284;2023-04-25T07:47:45;12.90;92.80
12604;DHT22;6367;52.508;13.284;2023-04-25T07:50:10;12.90;92.50
12604;DHT22;6367;52.508;13.284;2023-04-25T07:52:36;12.90;92.30
12604;DHT22;6367;52.508;13.284;2023-04-25T07:55:02;12.90;91.70
12604;DHT22;6367;52.508;13.284;2023-04-25T07:57:29;12.80;90.70
12604;DHT22;6367;52.508;13.284;2023-04-25T07:59:54;12.80;90.40
12604;DHT22;6367;52.508;13.284;2023-04-25T08:02:20;12.70;90.10
12604;DHT22;6367;52.508;13.284;2023-04-25T08:04:45;12.80;90.20
12604;DHT22;6367;52.508;13.284;2023-04-25T08:07:11;12.90;89.90
12604;DHT22;6367;52.508;13.284;2023-04-25T08:09:37;12.90;89.00
12604;DHT22;6367;52.508;13.284;2023-04-25T08:12:04;12.90;88.60
12604;DHT22;6367;52.508;13.284;2023-04-25T08:14:30;12.90;88.70
12604;DHT22;6367;52.508;13.284;2023-04-25T08:17:01;12.80;89.20
12604;DHT22;6367;52.508;13.284;2023-04-25T08:19:27;13.00;89.70
12604;DHT22;6367;52.508;13.284;2023-04-25T08:21:53;13.00;89.70
12604;DHT22;6367;52.508;13.284;2023-04-25T08:24:21;13.20;89.40
12604;DHT22;6367;52.508;13.284;2023-04-25T08:26:46;13.10;87.90
12604;DHT22;6367;52.508;13.284;2023-04-25T08:29:12;13.10;87.60
12604;DHT22;6367;52.508;13.284;2023-04-25T08:31:38;13.20;86.40
12604;DHT22;6367;52.508;13.284;2023-04-25T08:34:03;13.30;84.50
12604;DHT22;6367;52.508;13.284;2023-04-25T08:36:29;13.30;84.00
12604;DHT22;6367;52.508;13.284;2023-04-25T08:38:55;13.30;83.50
12604;DHT22;6367;52.508;13.284;2023-04-25T08:41:21;13.40;82.80
12604;DHT22;6367;52.508;13.284;2023-04-25T08:43:48;13.40;82.10
12604;DHT22;6367;52.508;13.284;2023-04-25T08:46:17;13.40;82.30
12604;DHT22;6367;52.508;13.284;2023-04-25T08:48:45;13.40;82.10
12604;DHT22;6367;52.508;13.284;2023-04-25T08:51:17;13.40;82.30
12604;DHT22;6367;52.508;13.284;2023-04-25T08:53:45;13.50;82.40
12604;DHT22;6367;52.508;13.284;2023-04-25T08:56:16;13.70;81.90
12604;DHT22;6367;52.508;13.284;2023-04-25T08:58:43;13.90;81.10
12604;DHT22;6367;52.508;13.284;2023-04-25T09:01:11;14.20;79.90
12604;DHT22;6367;52.508;13.284;2023-04-25T09:03:38;14.40;78.30
12604;DHT22;6367;52.508;13.284;2023-04-25T09:06:04;14.70;77.20
12604;DHT22;6367;52.508;13.284;2023-04-25T09:08:30;14.80;76.10
12604;DHT22;6367;52.508;13.284;2023-04-25T09:10:55;15.00;75.00
12604;DHT22;6367;52.508;13.284;2023-04-25T09:13:26;15.00;73.90
12604;DHT22;6367;52.508;13.284;2023-04-25T09:15:56;15.20;74.10
12604;DHT22;6367;52.508;13.284;2023-04-25T09:18:33;15.30;73.50
12604;DHT22;6367;52.508;13.284;2023-04-25T09:21:08;15.40;73.60
12604;DHT22;6367;52.508;13.284;2023-04-25T09:23:59;15.50;73.00
12604;DHT22;6367;52.508;13.284;2023-04-25T09:26:25;15.40;72.60
12604;DHT22;6367;52.508;13.284;2023-04-25T09:29:07;15.50;73.10
12604;DHT22;6367;52.508;13.284;2023-04-25T09:31:33;15.50;72.90
12604;DHT22;6367;52.508;13.284;2023-04-25T09:33:59;15.60;72.70
12604;DHT22;6367;52.508;13.284;2023-04-25T09:36:29;15.70;71.80
12604;DHT22;6367;52.508;13.284;2023-04-25T09:38:55;15.70;71.00
12604;DHT22;6367;52.508;13.284;2023-04-25T09:41:24;15.70;70.50
12604;DHT22;6367;52.508;13.284;2023-04-25T09:43:50;15.60;70.00
12604;DHT22;6367;52.508;13.284;2023-04-25T09:46:16;15.50;70.60
12604;DHT22;6367;52.508;13.284;2023-04-25T09:48:50;15.30;70.40
12604;DHT22;6367;52.508;13.284;2023-04-25T09:51:16;15.20;70.80
12604;DHT22;6367;52.508;13.284;2023-04-25T09:53:46;15.20;71.00
12604;DHT22;6367;52.508;13.284;2023-04-25T09:56:15;15.00;70.70
12604;DHT22;6367;52.508;13.284;2023-04-25T09:58:42;15.00;70.60
12604;DHT22;6367;52.508;13.284;2023-04-25T10:01:09;14.90;71.00
12604;DHT22;6367;52.508;13.284;2023-04-25T10:03:37;14.90;70.10
12604;DHT22;6367;52.508;13.284;2023-04-25T10:06:12;14.70;68.90
12604;DHT22;6367;52.508;13.284;2023-04-25T10:08:40;14.80;69.40
12604;DHT22;6367;52.508;13.284;2023-04-25T10:11:08;14.80;69.30
12604;DHT22;6367;52.508;13.284;2023-04-25T10:13:34;14.80;68.80
12604;DHT22;6367;52.508;13.284;2023-04-25T10:16:04;14.90;67.70
12604;DHT22;6367;52.508;13.284;2023-04-25T10:18:31;14.90;67.10
12604;DHT22;6367;52.508;13.284;2023-04-25T10:21:03;14.50;66.80
12604;DHT22;6367;52.508;13.284;2023-04-25T10:23:30;14.90;67.40
12604;DHT22;6367;52.508;13.284;2023-04-25T10:25:57;14.80;67.70
12604;DHT22;6367;52.508;13.284;2023-04-25T10:28:24;14.70;67.60
12604;DHT22;6367;52.508;13.284;2023-04-25T10:31:04;14.80;68.30
12604;DHT22;6367;52.508;13.284;2023-04-25T10:36:11;14.80;67.90
12604;DHT22;6367;52.508;13.284;2023-04-25T10:38:37;14.70;68.00
12604;DHT22;6367;52.508;13.284;2023-04-25T10:41:08;14.80;68.20
12604;DHT22;6367;52.508;13.284;2023-04-25T10:43:37;14.80;67.80
12604;DHT22;6367;52.508;13.284;2023-04-25T10:48:46;14.80;67.40
12604;DHT22;6367;52.508;13.284;2023-04-25T10:54:01;14.90;67.50
12604;DHT22;6367;52.508;13.284;2023-04-25T10:56:32;14.80;67.80
12604;DHT22;6367;52.508;13.284;2023-04-25T10:59:13;14.80;67.80
12604;DHT22;6367;52.508;13.284;2023-04-25T11:04:26;14.80;68.80
12604;DHT22;6367;52.508;13.284;2023-04-25T11:07:13;15.00;67.60
12604;DHT22;6367;52.508;13.284;2023-04-25T11:09:42;15.00;66.30
12604;DHT22;6367;52.508;13.284;2023-04-25T11:12:10;15.00;66.10
12604;DHT22;6367;52.508;13.284;2023-04-25T11:14:40;14.80;66.40
12604;DHT22;6367;52.508;13.284;2023-04-25T11:17:06;14.50;67.60
12604;DHT22;6367;52.508;13.284;2023-04-25T11:19:31;14.40;67.80
12604;DHT22;6367;52.508;13.284;2023-04-25T11:22:01;14.40;67.90
12604;DHT22;6367;52.508;13.284;2023-04-25T11:24:32;14.40;65.40
12604;DHT22;6367;52.508;13.284;2023-04-25T11:26:58;14.30;64.20
12604;DHT22;6367;52.508;13.284;2023-04-25T11:29:28;14.30;63.10
12604;DHT22;6367;52.508;13.284;2023-04-25T11:31:55;13.60;62.10
12604;DHT22;6367;52.508;13.284;2023-04-25T11:34:24;14.20;63.10
12604;DHT22;6367;52.508;13.284;2023-04-25T11:36:51;14.10;63.70
12604;DHT22;6367;52.508;13.284;2023-04-25T11:39:18;14.10;63.40
12604;DHT22;6367;52.508;13.284;2023-04-25T11:41:44;14.10;63.40
12604;DHT22;6367;52.508;13.284;2023-04-25T11:44:10;14.20;63.20
12604;DHT22;6367;52.508;13.284;2023-04-25T11:46:36;14.60;64.00
12604;DHT22;6367;52.508;13.284;2023-04-25T11:49:02;14.10;62.90
12604;DHT22;6367;52.508;13.284;2023-04-25T11:51:28;14.20;63.50
12604;DHT22;6367;52.508;13.284;2023-04-25T11:53:54;14.20;63.70
12604;DHT22;6367;52.508;13.284;2023-04-25T11:56:20;14.20;63.80
12604;DHT22;6367;52.508;13.284;2023-04-25T11:59:00;14.00;64.30
12604;DHT22;6367;52.508;13.284;2023-04-25T12:01:29;14.00;65.00
12604;DHT22;6367;52.508;13.284;2023-04-25T12:03:58;14.10;65.10
12604;DHT22;6367;52.508;13.284;2023-04-25T12:06:30;14.40;65.70
12604;DHT22;6367;52.508;13.284;2023-04-25T12:09:03;14.30;65.60
12604;DHT22;6367;52.508;13.284;2023-04-25T12:11:32;14.30;65.20
12604;DHT22;6367;52.508;13.284;2023-04-25T12:14:02;14.40;65.40
12604;DHT22;6367;52.508;13.284;2023-04-25T12:16:29;14.40;64.80
12604;DHT22;6367;52.508;13.284;2023-04-25T12:18:56;14.40;64.40
12604;DHT22;6367;52.508;13.284;2023-04-25T12:21:22;14.30;64.50
12604;DHT22;6367;52.508;13.284;2023-04-25T12:23:48;14.30;63.30
12604;DHT22;6367;52.508;13.284;2023-04-25T12:26:13;14.30;63.10
12604;DHT22;6367;52.508;13.284;2023-04-25T12:28:39;14.50;63.60
12604;DHT22;6367;52.508;13.284;2023-04-25T12:31:09;14.60;63.50
12604;DHT22;6367;52.508;13.284;2023-04-25T12:33:36;14.70;63.60
12604;DHT22;6367;52.508;13.284;2023-04-25T12:36:03;14.90;63.10
12604;DHT22;6367;52.508;13.284;2023-04-25T12:38:37;15.00;62.90
12604;DHT22;6367;52.508;13.284;2023-04-25T12:41:02;15.00;63.00
12604;DHT22;6367;52.508;13.284;2023-04-25T12:43:28;15.00;63.10
12604;DHT22;6367;52.508;13.284;2023-04-25T12:45:55;14.80;63.50
12604;DHT22;6367;52.508;13.284;2023-04-25T12:48:22;14.70;64.20
12604;DHT22;6367;52.508;13.284;2023-04-25T12:50:49;14.60;64.40
12604;DHT22;6367;52.508;13.284;2023-04-25T12:53:22;14.40;62.60
12604;DHT22;6367;52.508;13.284;2023-04-25T12:55:48;14.30;62.60
12604;DHT22;6367;52.508;13.284;2023-04-25T12:58:15;14.40;63.80
12604;DHT22;6367;52.508;13.284;2023-04-25T13:00:41;14.30;64.30
12604;DHT22;6367;52.508;13.284;2023-04-25T13:03:13;14.40;64.40
12604;DHT22;6367;52.508;13.284;2023-04-25T13:05:39;14.50;64.10
12604;DHT22;6367;52.508;13.284;2023-04-25T13:08:05;14.60;64.30
12604;DHT22;6367;52.508;13.284;2023-04-25T13:10:31;14.70;64.50
12604;DHT22;6367;52.508;13.284;2023-04-25T13:12:56;14.70;64.10
12604;DHT22;6367;52.508;13.284;2023-04-25T13:15:22;14.80;63.40
12604;DHT22;6367;52.508;13.284;2023-04-25T13:17:48;14.80;63.70
12604;DHT22;6367;52.508;13.284;2023-04-25T13:20:14;14.70;63.40
12604;DHT22;6367;52.508;13.284;2023-04-25T13:22:41;14.80;63.40
12604;DHT22;6367;52.508;13.284;2023-04-25T13:25:07;13.80;62.00
12604;DHT22;6367;52.508;13.284;2023-04-25T13:27:34;14.70;63.30
12604;DHT22;6367;52.508;13.284;2023-04-25T13:30:02;14.70;63.60
12604;DHT22;6367;52.508;13.284;2023-04-25T13:32:33;14.80;63.90
12604;DHT22;6367;52.508;13.284;2023-04-25T13:34:59;14.80;64.10
12604;DHT22;6367;52.508;13.284;2023-04-25T13:37:25;14.70;64.20
12604;DHT22;6367;52.508;13.284;2023-04-25T13:39:50;14.60;64.40
12604;DHT22;6367;52.508;13.284;2023-04-25T13:42:16;14.60;64.80
12604;DHT22;6367;52.508;13.284;2023-04-25T13:44:42;14.50;65.00
12604;DHT22;6367;52.508;13.284;2023-04-25T13:47:07;14.60;65.50
12604;DHT22;6367;52.508;13.284;2023-04-25T13:49:33;14.60;65.20
12604;DHT22;6367;52.508;13.284;2023-04-25T13:51:59;14.60;65.20
12604;DHT22;6367;52.508;13.284;2023-04-25T13:54:25;14.70;65.30
12604;DHT22;6367;52.508;13.284;2023-04-25T13:56:51;14.70;65.20
12604;DHT22;6367;52.508;13.284;2023-04-25T13:59:17;14.70;65.20
12604;DHT22;6367;52.508;13.284;2023-04-25T14:01:43;14.70;65.60
12604;DHT22;6367;52.508;13.284;2023-04-25T14:04:08;14.70;65.60
12604;DHT22;6367;52.508;13.284;2023-04-25T14:06:34;14.70;65.70
12604;DHT22;6367;52.508;13.284;2023-04-25T14:09:00;14.60;65.80
12604;DHT22;6367;52.508;13.284;2023-04-25T14:11:26;14.70;66.00
12604;DHT22;6367;52.508;13.284;2023-04-25T14:13:52;14.60;64.90
12604;DHT22;6367;52.508;13.284;2023-04-25T14:16:17;14.40;65.30
12604;DHT22;6367;52.508;13.284;2023-04-25T14:18:43;14.30;65.00
12604;DHT22;6367;52.508;13.284;2023-04-25T14:21:09;14.30;65.10
12604;DHT22;6367;52.508;13.284;2023-04-25T14:23:35;14.30;64.50
12604;DHT22;6367;52.508;13.284;2023-04-25T14:26:01;14.20;64.30
12604;DHT22;6367;52.508;13.284;2023-04-25T14:28:27;14.20;64.50
12604;DHT22;6367;52.508;13.284;2023-04-25T14:30:52;14.20;65.10
12604;DHT22;6367;52.508;13.284;2023-04-25T14:33:18;14.10;65.20
12604;DHT22;6367;52.508;13.284;2023-04-25T14:35:44;14.10;65.20
12604;DHT22;6367;52.508;13.284;2023-04-25T14:38:09;14.10;65.20
12604;DHT22;6367;52.508;13.284;2023-04-25T14:40:35;14.20;65.30
12604;DHT22;6367;52.508;13.284;2023-04-25T14:43:02;14.20;65.20
12604;DHT22;6367;52.508;13.284;2023-04-25T14:45:28;14.20;65.40
12604;DHT22;6367;52.508;13.284;2023-04-25T14:47:53;14.30;65.50
12604;DHT22;6367;52.508;13.284;2023-04-25T14:50:19;14.30;66.20
12604;DHT22;6367;52.508;13.284;2023-04-25T14:52:45;14.00;66.20
12604;DHT22;6367;52.508;13.284;2023-04-25T14:55:11;14.10;66.60
12604;DHT22;6367;52.508;13.284;2023-04-25T14:57:37;14.00;66.90
12604;DHT22;6367;52.508;13.284;2023-04-25T15:00:05;14.10;67.10
12604;DHT22;6367;52.508;13.284;2023-04-25T15:02:34;13.90;67.40
12604;DHT22;6367;52.508;13.284;2023-04-25T15:05:01;13.90;68.10
12604;DHT22;6367;52.508;13.284;2023-04-25T15:07:27;13.90;68.40
12604;DHT22;6367;52.508;13.284;2023-04-25T15:09:52;13.90;68.50
12604;DHT22;6367;52.508;13.284;2023-04-25T15:12:19;14.00;68.70
12604;DHT22;6367;52.508;13.284;2023-04-25T15:14:45;13.90;68.90
12604;DHT22;6367;52.508;13.284;2023-04-25T15:17:11;14.00;69.10
12604;DHT22;6367;52.508;13.284;2023-04-25T15:19:39;14.00;68.50
12604;DHT22;6367;52.508;13.284;2023-04-25T15:22:05;13.90;67.80
12604;DHT22;6367;52.508;13.284;2023-04-25T15:24:32;13.90;67.90
12604;DHT22;6367;52.508;13.284;2023-04-25T15:26:58;13.90;68.10
12604;DHT22;6367;52.508;13.284;2023-04-25T15:29:23;14.00;68.30
12604;DHT22;6367;52.508;13.284;2023-04-25T15:31:50;14.00;68.40
12604;DHT22;6367;52.508;13.284;2023-04-25T15:34:15;14.00;68.30
12604;DHT22;6367;52.508;13.284;2023-04-25T15:36:41;14.10;67.80
12604;DHT22;6367;52.508;13.284;2023-04-25T15:39:06;14.10;67.40